sensor_id;sensor_type;location;lat;lon;timestamp;pressure;altitude;pressure_sealevel;temperature;humidity
69982;BME280;57319;56.274;43.980;2023-04-01T00:02:07;98653.19;;;1.46;81.86
69982;BME280;57319;56.274;43.980;2023-04-01T00:04:33;98650.66;;;1.47;81.60
69982;BME280;57319;56.274;43.980;2023-04-01T00:06:59;98655.75;;;1.47;81.66
69982;BME280;57319;56.274;43.980;2023-04-01T00:09:25;98643.91;;;1.48;81.76
69982;BME280;57319;56.274;43.980;2023-04-01T00:11:51;98644.78;;;1.51;81.83
69982;BME280;57319;56.274;43.980;2023-04-01T00:14:17;98645.59;;;1.50;81.97
69982;BME280;57319;56.274;43.980;2023-04-01T00:16:43;98649.03;;;1.54;81.95
69982;BME280;57319;56.274;43.980;2023-04-01T00:19:08;98648.16;;;1.55;81.85
69982;BME280;57319;56.274;43.980;2023-04-01T00:21:34;98638.00;;;1.50;82.35
69982;BME280;57319;56.274;43.980;2023-04-01T00:24:02;98639.72;;;1.56;82.38
69982;BME280;57319;56.274;43.980;2023-04-01T00:26:27;98631.28;;;1.59;82.52
69982;BME280;57319;56.274;43.980;2023-04-01T00:28:53;98627.91;;;1.58;82.66
69982;BME280;57319;56.274;43.980;2023-04-01T00:31:19;98621.13;;;1.59;82.44
69982;BME280;57319;56.274;43.980;2023-04-01T00:33:45;98627.94;;;1.63;82.83
69982;BME280;57319;56.274;43.980;2023-04-01T00:36:17;98625.38;;;1.58;83.23
69982;BME280;57319;56.274;43.980;2023-04-01T00:38:44;98621.13;;;1.57;83.30
69982;BME280;57319;56.274;43.980;2023-04-01T00:41:11;98618.59;;;1.59;83.07
69982;BME280;57319;56.274;43.980;2023-04-01T00:43:42;98622.84;;;1.63;83.06
69982;BME280;57319;56.274;43.980;2023-04-01T00:46:08;98622.03;;;1.64;83.05
69982;BME280;57319;56.274;43.980;2023-04-01T00:48:36;98625.41;;;1.66;83.13
69982;BME280;57319;56.274;43.980;2023-04-01T00:51:15;98621.19;;;1.68;83.01
69982;BME280;57319;56.274;43.980;2023-04-01T00:53:46;98623.75;;;1.71;82.87
69982;BME280;57319;56.274;43.980;2023-04-01T00:56:16;98613.59;;;1.73;82.86
69982;BME280;57319;56.274;43.980;2023-04-01T00:58:46;98618.66;;;1.76;82.99
69982;BME280;57319;56.274;43.980;2023-04-01T01:01:13;98613.59;;;1.76;82.86
69982;BME280;57319;56.274;43.980;2023-04-01T01:03:38;98611.94;;;1.78;82.81
69982;BME280;57319;56.274;43.980;2023-04-01T01:11:43;98612.75;;;1.77;82.77
69982;BME280;57319;56.274;43.980;2023-04-01T01:16:49;98606.84;;;1.73;83.08
69982;BME280;57319;56.274;43.980;2023-04-01T01:19:40;98614.47;;;1.73;83.27
69982;BME280;57319;56.274;43.980;2023-04-01T01:27:29;98612.75;;;1.71;83.88
69982;BME280;57319;56.274;43.980;2023-04-01T01:35:50;98601.72;;;1.61;83.96
69982;BME280;57319;56.274;43.980;2023-04-01T01:38:21;98601.72;;;1.64;84.03
69982;BME280;57319;56.274;43.980;2023-04-01T01:40:49;98610.16;;;1.64;84.08
69982;BME280;57319;56.274;43.980;2023-04-01T01:43:23;98609.28;;;1.58;84.31
69982;BME280;57319;56.274;43.980;2023-04-01T01:45:53;98609.28;;;1.58;84.40
69982;BME280;57319;56.274;43.980;2023-04-01T01:48:20;98610.97;;;1.52;84.76
69982;BME280;57319;56.274;43.980;2023-04-01T01:50:48;98610.13;;;1.53;85.00
69982;BME280;57319;56.274;43.980;2023-04-01T01:53:14;98613.53;;;1.57;84.89
69982;BME280;57319;56.274;43.980;2023-04-01T01:55:43;98612.69;;;1.61;84.71
69982;BME280;57319;56.274;43.980;2023-04-01T01:58:20;98610.16;;;1.60;84.78
69982;BME280;57319;56.274;43.980;2023-04-01T02:00:54;98610.16;;;1.58;84.72
69982;BME280;57319;56.274;43.980;2023-04-01T02:03:23;98611.81;;;1.58;85.15
69982;BME280;57319;56.274;43.980;2023-04-01T02:05:52;98603.38;;;1.59;84.93
69982;BME280;57319;56.274;43.980;2023-04-01T02:08:43;98590.69;;;1.57;85.32
69982;BME280;57319;56.274;43.980;2023-04-01T02:11:13;98589.00;;;1.59;84.90
69982;BME280;57319;56.274;43.980;2023-04-01T02:13:45;98586.47;;;1.56;84.92
69982;BME280;57319;56.274;43.980;2023-04-01T02:16:19;98591.53;;;1.59;84.96
69982;BME280;57319;56.274;43.980;2023-04-01T02:18:48;98591.56;;;1.61;85.03
69982;BME280;57319;56.274;43.980;2023-04-01T02:21:16;98593.25;;;1.59;85.10
69982;BME280;57319;56.274;43.980;2023-04-01T02:23:44;98593.22;;;1.56;85.23
69982;BME280;57319;56.274;43.980;2023-04-01T02:26:12;98600.84;;;1.60;85.19
69982;BME280;57319;56.274;43.980;2023-04-01T02:28:40;98590.72;;;1.60;84.91
69982;BME280;57319;56.274;43.980;2023-04-01T02:31:09;98584.78;;;1.58;84.66
69982;BME280;57319;56.274;43.980;2023-04-01T02:33:36;98591.56;;;1.61;84.47
69982;BME280;57319;56.274;43.980;2023-04-01T02:36:04;98605.09;;;1.66;84.24
69982;BME280;57319;56.274;43.980;2023-04-01T02:38:29;98597.50;;;1.67;84.62
69982;BME280;57319;56.274;43.980;2023-04-01T02:41:00;98591.56;;;1.61;84.62
69982;BME280;57319;56.274;43.980;2023-04-01T02:43:27;98597.47;;;1.58;84.99
69982;BME280;57319;56.274;43.980;2023-04-01T02:45:53;98591.56;;;1.61;84.72
69982;BME280;57319;56.274;43.980;2023-04-01T02:48:19;98590.75;;;1.65;84.55
69982;BME280;57319;56.274;43.980;2023-04-01T02:50:44;98599.19;;;1.67;84.33
69982;BME280;57319;56.274;43.980;2023-04-01T02:53:10;98599.19;;;1.64;84.29
69982;BME280;57319;56.274;43.980;2023-04-01T02:55:36;98593.25;;;1.59;84.64
69982;BME280;57319;56.274;43.980;2023-04-01T02:58:02;98594.94;;;1.61;84.59
69982;BME280;57319;56.274;43.980;2023-04-01T03:00:28;98592.41;;;1.67;84.66
69982;BME280;57319;56.274;43.980;2023-04-01T03:02:53;98599.19;;;1.67;84.57
69982;BME280;57319;56.274;43.980;2023-04-01T03:05:20;98596.66;;;1.64;84.59
69982;BME280;57319;56.274;43.980;2023-04-01T03:07:45;98598.38;;;1.69;84.43
69982;BME280;57319;56.274;43.980;2023-04-01T03:10:11;98588.22;;;1.65;84.54
69982;BME280;57319;56.274;43.980;2023-04-01T03:12:38;98594.13;;;1.65;84.74
69982;BME280;57319;56.274;43.980;2023-04-01T03:15:04;98599.19;;;1.70;84.50
69982;BME280;57319;56.274;43.980;2023-04-01T03:17:30;98601.72;;;1.67;84.77
69982;BME280;57319;56.274;43.980;2023-04-01T03:19:55;98595.81;;;1.68;84.78
69982;BME280;57319;56.274;43.980;2023-04-01T03:22:21;98597.53;;;1.69;84.61
69982;BME280;57319;56.274;43.980;2023-04-01T03:24:49;98595.81;;;1.66;84.65
69982;BME280;57319;56.274;43.980;2023-04-01T03:27:15;98598.34;;;1.66;84.68
69982;BME280;57319;56.274;43.980;2023-04-01T03:29:41;98600.03;;;1.63;84.81
69982;BME280;57319;56.274;43.980;2023-04-01T03:32:06;98600.84;;;1.60;84.58
69982;BME280;57319;56.274;43.980;2023-04-01T03:34:32;98604.25;;;1.61;84.55
69982;BME280;57319;56.274;43.980;2023-04-01T03:36:58;98594.94;;;1.61;84.46
69982;BME280;57319;56.274;43.980;2023-04-01T03:39:24;98597.50;;;1.66;84.43
69982;BME280;57319;56.274;43.980;2023-04-01T03:41:50;98600.91;;;1.66;84.63
69982;BME280;57319;56.274;43.980;2023-04-01T03:44:16;98597.50;;;1.67;84.52
69982;BME280;57319;56.274;43.980;2023-04-01T03:46:42;98603.44;;;1.71;84.60
69982;BME280;57319;56.274;43.980;2023-04-01T03:49:09;98600.06;;;1.71;84.70
69982;BME280;57319;56.274;43.980;2023-04-01T03:51:41;98602.59;;;1.72;84.34
69982;BME280;57319;56.274;43.980;2023-04-01T03:54:07;98604.31;;;1.75;84.44
69982;BME280;57319;56.274;43.980;2023-04-01T03:56:33;98609.34;;;1.70;84.28
69982;BME280;57319;56.274;43.980;2023-04-01T03:59:02;98606.84;;;1.75;84.45
69982;BME280;57319;56.274;43.980;2023-04-01T04:01:28;98611.09;;;1.77;84.60
69982;BME280;57319;56.274;43.980;2023-04-01T04:03:55;98608.53;;;1.76;84.47
69982;BME280;57319;56.274;43.980;2023-04-01T04:06:22;98600.06;;;1.71;84.26
69982;BME280;57319;56.274;43.980;2023-04-01T04:08:48;98607.69;;;1.78;84.52
69982;BME280;57319;56.274;43.980;2023-04-01T04:11:13;98601.75;;;1.72;84.43
69982;BME280;57319;56.274;43.980;2023-04-01T04:13:39;98608.53;;;1.74;83.99
69982;BME280;57319;56.274;43.980;2023-04-01T04:16:06;98619.56;;;1.81;84.11
69982;BME280;57319;56.274;43.980;2023-04-01T04:18:32;98608.56;;;1.85;83.89
69982;BME280;57319;56.274;43.980;2023-04-01T04:20:57;98608.56;;;1.86;83.73
69982;BME280;57319;56.274;43.980;2023-04-01T04:23:23;98615.34;;;1.83;83.65
69982;BME280;57319;56.274;43.980;2023-04-01T04:25:57;98603.50;;;1.86;83.68
69982;BME280;57319;56.274;43.980;2023-04-01T04:28:24;98613.69;;;1.91;83.42
69982;BME280;57319;56.274;43.980;2023-04-01T04:30:49;98608.63;;;1.96;83.29
69982;BME280;57319;56.274;43.980;2023-04-01T04:33:15;98616.28;;;2.02;83.08
69982;BME280;57319;56.274;43.980;2023-04-01T04:35:41;98607.81;;;2.06;82.98
69982;BME280;57319;56.274;43.980;2023-04-01T04:38:06;98611.19;;;2.10;83.06
69982;BME280;57319;56.274;43.980;2023-04-01T04:40:32;98615.44;;;2.11;82.90
69982;BME280;57319;56.274;43.980;2023-04-01T04:42:57;98614.59;;;2.18;82.58
69982;BME280;57319;56.274;43.980;2023-04-01T04:45:23;98606.16;;;2.19;81.96
69982;BME280;57319;56.274;43.980;2023-04-01T04:47:49;98608.69;;;2.25;82.11
69982;BME280;57319;56.274;43.980;2023-04-01T04:50:14;98610.44;;;2.34;81.78
69982;BME280;57319;56.274;43.980;2023-04-01T04:52:40;98607.03;;;2.32;81.63
69982;BME280;57319;56.274;43.980;2023-04-01T04:55:06;98606.19;;;2.37;81.48
69982;BME280;57319;56.274;43.980;2023-04-01T04:57:32;98613.00;;;2.43;81.12
69982;BME280;57319;56.274;43.980;2023-04-01T04:59:57;98613.81;;;2.50;81.04
69982;BME280;57319;56.274;43.980;2023-04-01T05:02:23;98607.94;;;2.57;80.77
69982;BME280;57319;56.274;43.980;2023-04-01T05:04:48;98616.38;;;2.59;80.60
69982;BME280;57319;56.274;43.980;2023-04-01T05:07:14;98610.47;;;2.63;80.70
69982;BME280;57319;56.274;43.980;2023-04-01T05:09:40;98608.78;;;2.56;80.49
69982;BME280;57319;56.274;43.980;2023-04-01T05:12:06;98614.69;;;2.53;80.15
69982;BME280;57319;56.274;43.980;2023-04-01T05:14:31;98608.75;;;2.45;80.06
69982;BME280;57319;56.274;43.980;2023-04-01T05:16:57;98611.28;;;2.41;80.71
69982;BME280;57319;56.274;43.980;2023-04-01T05:19:22;98614.66;;;2.41;80.83
69982;BME280;57319;56.274;43.980;2023-04-01T05:21:48;98617.22;;;2.47;80.68
69982;BME280;57319;56.274;43.980;2023-04-01T05:24:13;98607.91;;;2.51;80.48
69982;BME280;57319;56.274;43.980;2023-04-01T05:26:39;98617.22;;;2.53;80.44
69982;BME280;57319;56.274;43.980;2023-04-01T05:29:05;98616.38;;;2.61;80.29
69982;BME280;57319;56.274;43.980;2023-04-01T05:31:31;98621.50;;;2.67;79.99
69982;BME280;57319;56.274;43.980;2023-04-01T05:33:56;98618.09;;;2.66;79.88
69982;BME280;57319;56.274;43.980;2023-04-01T05:36:22;98621.50;;;2.67;80.03
69982;BME280;57319;56.274;43.980;2023-04-01T05:38:48;98618.09;;;2.68;80.04
69982;BME280;57319;56.274;43.980;2023-04-01T05:41:14;98624.03;;;2.67;80.01
69982;BME280;57319;56.274;43.980;2023-04-01T05:43:41;98609.63;;;2.74;79.61
69982;BME280;57319;56.274;43.980;2023-04-01T05:46:07;98610.47;;;2.88;79.94
69982;BME280;57319;56.274;43.980;2023-04-01T05:48:33;98613.88;;;2.93;79.33
69982;BME280;57319;56.274;43.980;2023-04-01T05:51:00;98609.66;;;2.97;79.28
69982;BME280;57319;56.274;43.980;2023-04-01T05:53:26;98614.72;;;3.03;79.23
69982;BME280;57319;56.274;43.980;2023-04-01T05:55:51;98605.41;;;3.07;79.16
69982;BME280;57319;56.274;43.980;2023-04-01T05:58:17;98613.03;;;3.08;78.84
69982;BME280;57319;56.274;43.980;2023-04-01T06:00:43;98607.94;;;3.07;78.21
69982;BME280;57319;56.274;43.980;2023-04-01T06:03:09;98602.84;;;3.10;78.43
69982;BME280;57319;56.274;43.980;2023-04-01T06:05:42;98613.00;;;3.19;77.56
69982;BME280;57319;56.274;43.980;2023-04-01T06:08:16;98620.66;;;2.99;76.40
69982;BME280;57319;56.274;43.980;2023-04-01T06:10:48;98611.34;;;2.90;76.04
69982;BME280;57319;56.274;43.980;2023-04-01T06:13:33;98618.94;;;2.95;76.19
69982;BME280;57319;56.274;43.980;2023-04-01T06:22:19;98624.88;;;3.01;76.45
69982;BME280;57319;56.274;43.980;2023-04-01T06:27:13;98622.31;;;3.08;75.63
69982;BME280;57319;56.274;43.980;2023-04-01T06:49:17;98645.25;;;3.09;76.22
69982;BME280;57319;56.274;43.980;2023-04-01T06:54:17;98637.59;;;3.09;75.21
69982;BME280;57319;56.274;43.980;2023-04-01T06:56:45;98644.38;;;3.21;75.21
69982;BME280;57319;56.274;43.980;2023-04-01T06:59:19;98644.34;;;3.41;74.59
69982;BME280;57319;56.274;43.980;2023-04-01T07:01:59;98643.47;;;3.51;73.90
69982;BME280;57319;56.274;43.980;2023-04-01T07:04:30;98646.00;;;3.67;72.98
69982;BME280;57319;56.274;43.980;2023-04-01T07:07:00;98641.69;;;3.87;73.12
69982;BME280;57319;56.274;43.980;2023-04-01T07:09:37;98651.78;;;4.09;73.26
69982;BME280;57319;56.274;43.980;2023-04-01T07:12:13;98655.97;;;4.22;72.21
69982;BME280;57319;56.274;43.980;2023-04-01T07:14:42;98657.75;;;4.10;70.02
69982;BME280;57319;56.274;43.980;2023-04-01T07:17:15;98657.72;;;4.06;70.62
69982;BME280;57319;56.274;43.980;2023-04-01T07:19:47;98656.06;;;3.99;69.80
69982;BME280;57319;56.274;43.980;2023-04-01T07:24:59;98658.56;;;4.13;70.07
69982;BME280;57319;56.274;43.980;2023-04-01T07:27:28;98667.06;;;4.15;69.90
69982;BME280;57319;56.274;43.980;2023-04-01T07:29:56;98662.84;;;4.10;69.73
69982;BME280;57319;56.274;43.980;2023-04-01T07:35:07;98673.97;;;3.79;70.06
69982;BME280;57319;56.274;43.980;2023-04-01T07:37:46;98673.13;;;3.83;70.84
69982;BME280;57319;56.274;43.980;2023-04-01T07:40:28;98684.13;;;3.87;70.62
69982;BME280;57319;56.274;43.980;2023-04-01T07:45:50;98688.34;;;3.97;70.58
69982;BME280;57319;56.274;43.980;2023-04-01T07:51:03;98690.94;;;3.68;70.20
69982;BME280;57319;56.274;43.980;2023-04-01T07:53:48;98694.38;;;3.58;71.58
69982;BME280;57319;56.274;43.980;2023-04-01T07:59:05;98707.09;;;3.42;72.23
69982;BME280;57319;56.274;43.980;2023-04-01T08:09:57;98721.50;;;3.26;74.52
69982;BME280;57319;56.274;43.980;2023-04-01T08:15:26;98729.13;;;3.57;73.98
69982;BME280;57319;56.274;43.980;2023-04-01T08:23:15;98733.25;;;4.11;71.32
69982;BME280;57319;56.274;43.980;2023-04-01T08:25:50;98729.91;;;4.05;71.12
69982;BME280;57319;56.274;43.980;2023-04-01T08:28:35;98731.59;;;4.11;70.41
69982;BME280;57319;56.274;43.980;2023-04-01T08:31:04;98737.47;;;4.24;70.72
69982;BME280;57319;56.274;43.980;2023-04-01T08:33:32;98739.13;;;4.31;70.61
69982;BME280;57319;56.274;43.980;2023-04-01T08:38:34;98746.78;;;4.37;69.67
69982;BME280;57319;56.274;43.980;2023-04-01T08:44:10;98757.03;;;4.23;70.24
69982;BME280;57319;56.274;43.980;2023-04-01T08:55:26;98772.31;;;4.13;70.88
69982;BME280;57319;56.274;43.980;2023-04-01T09:09:27;98792.75;;;3.88;70.13
69982;BME280;57319;56.274;43.980;2023-04-01T09:17:47;98814.78;;;4.03;70.53
69982;BME280;57319;56.274;43.980;2023-04-01T09:20:50;98819.03;;;4.05;70.59
69982;BME280;57319;56.274;43.980;2023-04-01T09:29:26;98830.06;;;4.04;70.95
69982;BME280;57319;56.274;43.980;2023-04-01T09:32:22;98839.38;;;4.02;70.89
69982;BME280;57319;56.274;43.980;2023-04-01T09:37:51;98850.44;;;3.94;72.04
69982;BME280;57319;56.274;43.980;2023-04-01T09:40:24;98839.41;;;3.93;72.00
69982;BME280;57319;56.274;43.980;2023-04-01T09:46:12;98843.63;;;4.27;72.43
69982;BME280;57319;56.274;43.980;2023-04-01T09:54:17;98857.16;;;4.39;72.18
69982;BME280;57319;56.274;43.980;2023-04-01T10:02:44;98863.09;;;4.54;71.89
69982;BME280;57319;56.274;43.980;2023-04-01T10:11:01;98854.56;;;4.64;71.86
69982;BME280;57319;56.274;43.980;2023-04-01T10:21:57;98858.53;;;5.33;68.05
69982;BME280;57319;56.274;43.980;2023-04-01T10:33:31;98895.81;;;5.60;65.62
69982;BME280;57319;56.274;43.980;2023-04-01T11:20:22;98956.56;;;4.43;65.60
69982;BME280;57319;56.274;43.980;2023-04-01T11:26:02;98975.22;;;4.07;68.69
69982;BME280;57319;56.274;43.980;2023-04-01T11:33:43;98987.13;;;4.46;70.89
69982;BME280;57319;56.274;43.980;2023-04-01T11:44:35;98987.91;;;4.96;69.45
69982;BME280;57319;56.274;43.980;2023-04-01T12:04:05;99001.69;;;7.99;56.32
69982;BME280;57319;56.274;43.980;2023-04-01T12:09:30;98993.09;;;11.00;48.31
69982;BME280;57319;56.274;43.980;2023-04-01T12:26:27;98999.81;;;11.97;45.17
69982;BME280;57319;56.274;43.980;2023-04-01T12:29:09;98993.19;;;13.21;40.87
69982;BME280;57319;56.274;43.980;2023-04-01T12:34:59;99001.28;;;13.37;40.68
69982;BME280;57319;56.274;43.980;2023-04-01T12:37:33;99007.75;;;13.72;40.45
69982;BME280;57319;56.274;43.980;2023-04-01T12:45:27;99036.00;;;9.89;47.39
69982;BME280;57319;56.274;43.980;2023-04-01T12:53:35;99045.13;;;7.40;54.41
69982;BME280;57319;56.274;43.980;2023-04-01T12:56:12;99048.69;;;7.25;54.79
69982;BME280;57319;56.274;43.980;2023-04-01T13:04:01;99060.53;;;7.32;54.43
69982;BME280;57319;56.274;43.980;2023-04-01T13:06:43;99059.16;;;8.45;52.00
69982;BME280;57319;56.274;43.980;2023-04-01T13:18:03;99074.31;;;7.22;53.61
69982;BME280;57319;56.274;43.980;2023-04-01T13:20:43;99083.13;;;6.93;54.87
69982;BME280;57319;56.274;43.980;2023-04-01T13:32:43;99103.28;;;6.07;56.97
69982;BME280;57319;56.274;43.980;2023-04-01T13:43:41;99118.75;;;5.53;58.85
69982;BME280;57319;56.274;43.980;2023-04-01T13:49:19;99129.03;;;5.32;59.97
69982;BME280;57319;56.274;43.980;2023-04-01T13:52:21;99130.75;;;5.25;60.37
69982;BME280;57319;56.274;43.980;2023-04-01T13:55:10;99137.53;;;5.21;61.06
69982;BME280;57319;56.274;43.980;2023-04-01T14:03:22;99159.66;;;5.10;61.50
69982;BME280;57319;56.274;43.980;2023-04-01T14:06:26;99164.75;;;5.02;62.51
69982;BME280;57319;56.274;43.980;2023-04-01T14:12:08;99163.03;;;5.23;62.41
69982;BME280;57319;56.274;43.980;2023-04-01T14:17:44;99164.69;;;5.64;61.39
69982;BME280;57319;56.274;43.980;2023-04-01T14:25:33;99182.59;;;5.38;62.51
69982;BME280;57319;56.274;43.980;2023-04-01T14:34:09;99193.66;;;5.18;62.35
69982;BME280;57319;56.274;43.980;2023-04-01T14:47:48;99214.91;;;4.94;62.80
69982;BME280;57319;56.274;43.980;2023-04-01T14:50:18;99227.66;;;4.97;62.68
69982;BME280;57319;56.274;43.980;2023-04-01T14:55:44;99235.31;;;4.89;63.40
69982;BME280;57319;56.274;43.980;2023-04-01T14:58:14;99231.03;;;4.91;63.82
69982;BME280;57319;56.274;43.980;2023-04-01T15:01:02;99240.41;;;4.91;63.93
69982;BME280;57319;56.274;43.980;2023-04-01T15:03:40;99237.84;;;4.91;63.79
69982;BME280;57319;56.274;43.980;2023-04-01T15:14:38;99247.19;;;4.86;63.29
69982;BME280;57319;56.274;43.980;2023-04-01T15:28:02;99263.34;;;4.96;63.71
69982;BME280;57319;56.274;43.980;2023-04-01T15:30:40;99274.44;;;4.95;63.69
69982;BME280;57319;56.274;43.980;2023-04-01T15:36:02;99285.44;;;4.87;63.89
69982;BME280;57319;56.274;43.980;2023-04-01T15:41:29;99303.28;;;4.84;64.12
69982;BME280;57319;56.274;43.980;2023-04-01T15:44:03;99301.56;;;4.75;64.70
69982;BME280;57319;56.274;43.980;2023-04-01T15:46:46;99316.81;;;4.69;65.18
69982;BME280;57319;56.274;43.980;2023-04-01T15:49:41;99320.19;;;4.61;65.45
69982;BME280;57319;56.274;43.980;2023-04-01T15:58:01;99331.16;;;4.44;66.67
69982;BME280;57319;56.274;43.980;2023-04-01T16:00:30;99330.28;;;4.42;66.92
69982;BME280;57319;56.274;43.980;2023-04-01T16:11:10;99340.41;;;4.31;67.81
69982;BME280;57319;56.274;43.980;2023-04-01T16:13:48;99348.94;;;4.32;68.17
69982;BME280;57319;56.274;43.980;2023-04-01T16:16:34;99350.59;;;4.28;68.49
69982;BME280;57319;56.274;43.980;2023-04-01T16:22:15;99339.59;;;4.35;68.57
69982;BME280;57319;56.274;43.980;2023-04-01T16:27:42;99343.00;;;4.36;68.56
69982;BME280;57319;56.274;43.980;2023-04-01T16:30:35;99327.72;;;4.33;68.48
69982;BME280;57319;56.274;43.980;2023-04-01T16:33:08;99333.66;;;4.35;68.66
69982;BME280;57319;56.274;43.980;2023-04-01T16:35:56;99343.00;;;4.36;68.63
69982;BME280;57319;56.274;43.980;2023-04-01T16:43:42;99359.13;;;4.30;69.02
69982;BME280;57319;56.274;43.980;2023-04-01T16:52:04;99354.84;;;4.28;69.33
69982;BME280;57319;56.274;43.980;2023-04-01T16:59:38;99339.50;;;4.17;69.86
69982;BME280;57319;56.274;43.980;2023-04-01T17:13:29;99359.56;;;3.75;70.89
69982;BME280;57319;56.274;43.980;2023-04-01T17:18:57;99361.09;;;3.58;71.49
69982;BME280;57319;56.274;43.980;2023-04-01T17:23:53;99362.69;;;3.46;72.36
69982;BME280;57319;56.274;43.980;2023-04-01T17:31:53;99359.13;;;3.32;72.98
69982;BME280;57319;56.274;43.980;2023-04-01T17:37:22;99357.38;;;3.25;73.60
69982;BME280;57319;56.274;43.980;2023-04-01T17:42:48;99356.44;;;3.16;73.79
69982;BME280;57319;56.274;43.980;2023-04-01T17:48:37;99348.69;;;3.05;74.26
69982;BME280;57319;56.274;43.980;2023-04-01T17:51:18;99341.84;;;3.00;74.31
69982;BME280;57319;56.274;43.980;2023-04-01T18:12:35;99360.19;;;2.76;75.82
69982;BME280;57319;56.274;43.980;2023-04-01T18:15:30;99364.34;;;2.69;75.91
69982;BME280;57319;56.274;43.980;2023-04-01T18:23:30;99374.25;;;2.50;76.36
69982;BME280;57319;56.274;43.980;2023-04-01T18:26:05;99377.56;;;2.45;76.59
69982;BME280;57319;56.274;43.980;2023-04-01T18:28:38;99363.16;;;2.44;76.77
69982;BME280;57319;56.274;43.980;2023-04-01T18:31:07;99371.72;;;2.50;76.70
69982;BME280;57319;56.274;43.980;2023-04-01T18:34:18;99375.09;;;2.51;76.66
69982;BME280;57319;56.274;43.980;2023-04-01T18:36:55;99368.38;;;2.51;76.87
69982;BME280;57319;56.274;43.980;2023-04-01T18:39:35;99375.16;;;2.54;76.92
69982;BME280;57319;56.274;43.980;2023-04-01T18:56:32;99370.28;;;2.68;76.78
69982;BME280;57319;56.274;43.980;2023-04-01T18:59:10;99376.22;;;2.70;76.75
69982;BME280;57319;56.274;43.980;2023-04-01T19:04:36;99385.69;;;2.82;76.57
69982;BME280;57319;56.274;43.980;2023-04-01T19:21:57;99383.53;;;3.16;75.97
69982;BME280;57319;56.274;43.980;2023-04-01T19:24:32;99375.16;;;3.21;75.85
69982;BME280;57319;56.274;43.980;2023-04-01T19:27:17;99377.72;;;3.23;75.80
69982;BME280;57319;56.274;43.980;2023-04-01T19:35:27;99377.88;;;3.42;75.19
69982;BME280;57319;56.274;43.980;2023-04-01T19:38:41;99388.06;;;3.43;75.03
69982;BME280;57319;56.274;43.980;2023-04-01T19:40:58;99382.19;;;3.49;74.95
69982;BME280;57319;56.274;43.980;2023-04-01T19:46:23;99388.19;;;3.52;74.78
69982;BME280;57319;56.274;43.980;2023-04-01T19:49:10;99390.72;;;3.54;74.85
69982;BME280;57319;56.274;43.980;2023-04-01T19:57:30;99393.41;;;3.66;74.66
69982;BME280;57319;56.274;43.980;2023-04-01T20:05:52;99388.31;;;3.68;74.37
69982;BME280;57319;56.274;43.980;2023-04-01T20:16:58;99395.19;;;3.75;73.99
69982;BME280;57319;56.274;43.980;2023-04-01T20:19:28;99396.88;;;3.76;73.94
69982;BME280;57319;56.274;43.980;2023-04-01T20:21:58;99399.41;;;3.74;73.95
69982;BME280;57319;56.274;43.980;2023-04-01T20:37:50;99423.09;;;3.66;74.24
69982;BME280;57319;56.274;43.980;2023-04-01T20:40:47;99425.66;;;3.66;74.55
69982;BME280;57319;56.274;43.980;2023-04-01T20:46:15;99431.59;;;3.69;74.61
69982;BME280;57319;56.274;43.980;2023-04-01T20:48:57;99422.22;;;3.65;74.57
69982;BME280;57319;56.274;43.980;2023-04-01T20:51:35;99424.75;;;3.64;74.53
69982;BME280;57319;56.274;43.980;2023-04-01T21:05:28;99430.84;;;3.75;74.73
69982;BME280;57319;56.274;43.980;2023-04-01T21:10:43;99445.25;;;3.76;74.87
69982;BME280;57319;56.274;43.980;2023-04-01T21:16:06;99449.47;;;3.74;74.79
69982;BME280;57319;56.274;43.980;2023-04-01T21:27:39;99459.72;;;3.80;74.78
69982;BME280;57319;56.274;43.980;2023-04-01T21:38:36;99466.53;;;3.83;75.20
69982;BME280;57319;56.274;43.980;2023-04-01T21:44:38;99467.34;;;3.80;75.59
69982;BME280;57319;56.274;43.980;2023-04-01T21:53:01;99472.41;;;3.77;76.54
69982;BME280;57319;56.274;43.980;2023-04-01T21:58:49;99474.97;;;3.79;76.94
69982;BME280;57319;56.274;43.980;2023-04-01T22:07:21;99470.72;;;3.78;77.54
69982;BME280;57319;56.274;43.980;2023-04-01T22:12:33;99459.66;;;3.74;78.14
69982;BME280;57319;56.274;43.980;2023-04-01T22:21:32;99462.09;;;3.63;78.81
69982;BME280;57319;56.274;43.980;2023-04-01T22:26:23;99468.84;;;3.61;79.14
69982;BME280;57319;56.274;43.980;2023-04-01T22:29:09;99462.88;;;3.58;79.73
69982;BME280;57319;56.274;43.980;2023-04-01T22:32:01;99466.28;;;3.58;80.12
69982;BME280;57319;56.274;43.980;2023-04-01T22:34:46;99473.13;;;3.64;79.97
69982;BME280;57319;56.274;43.980;2023-04-01T22:37:37;99469.72;;;3.63;80.13
69982;BME280;57319;56.274;43.980;2023-04-01T22:42:57;99465.50;;;3.65;79.84
69982;BME280;57319;56.274;43.980;2023-04-01T22:45:43;99474.06;;;3.72;79.69
69982;BME280;57319;56.274;43.980;2023-04-01T22:48:29;99480.03;;;3.74;79.67
69982;BME280;57319;56.274;43.980;2023-04-01T22:51:20;99473.25;;;3.74;79.81
69982;BME280;57319;56.274;43.980;2023-04-01T22:54:07;99458.84;;;3.77;79.81
69982;BME280;57319;56.274;43.980;2023-04-01T22:56:44;99466.53;;;3.81;79.49
69982;BME280;57319;56.274;43.980;2023-04-01T22:59:16;99479.25;;;3.83;79.58
69982;BME280;57319;56.274;43.980;2023-04-01T23:01:53;99476.75;;;3.86;79.33
69982;BME280;57319;56.274;43.980;2023-04-01T23:04:24;99469.97;;;3.88;79.22
69982;BME280;57319;56.274;43.980;2023-04-01T23:06:58;99479.34;;;3.89;79.38
69982;BME280;57319;56.274;43.980;2023-04-01T23:09:35;99475.91;;;3.88;79.40
69982;BME280;57319;56.274;43.980;2023-04-01T23:12:04;99477.63;;;3.88;79.48
69982;BME280;57319;56.274;43.980;2023-04-01T23:14:49;99472.50;;;3.85;79.53
69982;BME280;57319;56.274;43.980;2023-04-01T23:22:55;99487.84;;;3.91;79.23
69982;BME280;57319;56.274;43.980;2023-04-01T23:25:29;99483.56;;;3.88;79.33
69982;BME280;57319;56.274;43.980;2023-04-01T23:28:19;99487.00;;;3.94;79.29
69982;BME280;57319;56.274;43.980;2023-04-01T23:30:51;99488.75;;;3.98;79.30
69982;BME280;57319;56.274;43.980;2023-04-01T23:33:23;99490.50;;;4.02;79.21